sensor_id;sensor_type;location;lat;lon;timestamp;P1;durP1;ratioP1;P2;durP2;ratioP2
56728;SDS011;42612;52.232;7.560;2023-12-20T00:01:36;3.00;;;1.48;;
56728;SDS011;42612;52.232;7.560;2023-12-20T00:04:02;4.97;;;1.77;;
56728;SDS011;42612;52.232;7.560;2023-12-20T00:06:29;2.90;;;1.40;;
56728;SDS011;42612;52.232;7.560;2023-12-20T00:08:55;2.67;;;1.20;;
56728;SDS011;42612;52.232;7.560;2023-12-20T00:11:22;5.30;;;1.80;;
56728;SDS011;42612;52.232;7.560;2023-12-20T00:13:48;3.70;;;1.92;;
56728;SDS011;42612;52.232;7.560;2023-12-20T00:16:14;5.18;;;2.10;;
56728;SDS011;42612;52.232;7.560;2023-12-20T00:18:40;2.83;;;1.95;;
56728;SDS011;42612;52.232;7.560;2023-12-20T00:21:06;5.82;;;1.77;;
56728;SDS011;42612;52.232;7.560;2023-12-20T00:23:32;3.97;;;1.70;;
56728;SDS011;42612;52.232;7.560;2023-12-20T00:25:58;3.22;;;1.67;;
56728;SDS011;42612;52.232;7.560;2023-12-20T00:28:23;2.72;;;1.77;;
56728;SDS011;42612;52.232;7.560;2023-12-20T00:30:49;4.60;;;2.25;;
56728;SDS011;42612;52.232;7.560;2023-12-20T00:33:15;4.07;;;2.17;;
56728;SDS011;42612;52.232;7.560;2023-12-20T00:35:40;2.17;;;1.98;;
56728;SDS011;42612;52.232;7.560;2023-12-20T00:38:06;5.68;;;2.17;;
56728;SDS011;42612;52.232;7.560;2023-12-20T00:40:33;7.18;;;2.17;;
56728;SDS011;42612;52.232;7.560;2023-12-20T00:42:59;6.20;;;2.13;;
56728;SDS011;42612;52.232;7.560;2023-12-20T00:45:25;3.22;;;1.90;;
56728;SDS011;42612;52.232;7.560;2023-12-20T00:47:51;9.43;;;2.53;;
56728;SDS011;42612;52.232;7.560;2023-12-20T00:50:16;2.58;;;1.73;;
56728;SDS011;42612;52.232;7.560;2023-12-20T00:52:42;2.33;;;1.92;;
56728;SDS011;42612;52.232;7.560;2023-12-20T00:55:08;5.43;;;1.73;;
56728;SDS011;42612;52.232;7.560;2023-12-20T00:57:34;6.25;;;1.92;;
56728;SDS011;42612;52.232;7.560;2023-12-20T00:59:59;4.75;;;1.50;;
56728;SDS011;42612;52.232;7.560;2023-12-20T01:02:25;3.83;;;1.90;;
56728;SDS011;42612;52.232;7.560;2023-12-20T01:04:51;8.07;;;2.28;;
56728;SDS011;42612;52.232;7.560;2023-12-20T01:07:17;8.48;;;1.98;;
56728;SDS011;42612;52.232;7.560;2023-12-20T01:09:43;5.57;;;1.65;;
56728;SDS011;42612;52.232;7.560;2023-12-20T01:12:08;5.93;;;1.85;;
56728;SDS011;42612;52.232;7.560;2023-12-20T01:14:34;5.70;;;2.47;;
56728;SDS011;42612;52.232;7.560;2023-12-20T01:17:00;3.10;;;1.77;;
56728;SDS011;42612;52.232;7.560;2023-12-20T01:19:26;3.28;;;1.70;;
56728;SDS011;42612;52.232;7.560;2023-12-20T01:21:53;4.97;;;2.00;;
56728;SDS011;42612;52.232;7.560;2023-12-20T01:24:19;4.10;;;1.70;;
56728;SDS011;42612;52.232;7.560;2023-12-20T01:26:44;4.20;;;1.73;;
56728;SDS011;42612;52.232;7.560;2023-12-20T01:29:10;3.47;;;1.42;;
56728;SDS011;42612;52.232;7.560;2023-12-20T01:31:36;3.95;;;1.70;;
56728;SDS011;42612;52.232;7.560;2023-12-20T01:34:01;7.72;;;2.25;;
56728;SDS011;42612;52.232;7.560;2023-12-20T01:36:27;4.72;;;1.42;;
56728;SDS011;42612;52.232;7.560;2023-12-20T01:38:54;5.18;;;1.95;;
56728;SDS011;42612;52.232;7.560;2023-12-20T01:41:19;2.80;;;1.70;;
56728;SDS011;42612;52.232;7.560;2023-12-20T01:43:45;6.10;;;1.88;;
56728;SDS011;42612;52.232;7.560;2023-12-20T01:46:11;4.78;;;1.70;;
56728;SDS011;42612;52.232;7.560;2023-12-20T01:48:37;3.17;;;1.80;;
56728;SDS011;42612;52.232;7.560;2023-12-20T01:51:03;7.20;;;2.15;;
56728;SDS011;42612;52.232;7.560;2023-12-20T01:53:30;3.58;;;1.67;;
56728;SDS011;42612;52.232;7.560;2023-12-20T01:55:57;5.55;;;2.00;;
56728;SDS011;42612;52.232;7.560;2023-12-20T01:58:24;6.43;;;2.17;;
56728;SDS011;42612;52.232;7.560;2023-12-20T02:00:51;5.53;;;2.50;;
56728;SDS011;42612;52.232;7.560;2023-12-20T02:03:17;7.22;;;2.10;;
56728;SDS011;42612;52.232;7.560;2023-12-20T02:05:43;6.68;;;2.05;;
56728;SDS011;42612;52.232;7.560;2023-12-20T02:08:10;4.28;;;2.20;;
56728;SDS011;42612;52.232;7.560;2023-12-20T02:10:36;7.25;;;2.53;;
56728;SDS011;42612;52.232;7.560;2023-12-20T02:13:03;6.25;;;3.20;;
56728;SDS011;42612;52.232;7.560;2023-12-20T02:15:29;6.57;;;3.00;;
56728;SDS011;42612;52.232;7.560;2023-12-20T02:17:55;11.20;;;2.45;;
56728;SDS011;42612;52.232;7.560;2023-12-20T02:20:21;6.70;;;2.75;;
56728;SDS011;42612;52.232;7.560;2023-12-20T02:22:47;7.40;;;2.20;;
56728;SDS011;42612;52.232;7.560;2023-12-20T02:25:12;3.22;;;2.35;;
56728;SDS011;42612;52.232;7.560;2023-12-20T02:27:38;7.53;;;2.75;;
56728;SDS011;42612;52.232;7.560;2023-12-20T02:30:05;9.45;;;3.20;;
56728;SDS011;42612;52.232;7.560;2023-12-20T02:32:31;8.23;;;2.83;;
56728;SDS011;42612;52.232;7.560;2023-12-20T02:34:57;10.30;;;2.55;;
56728;SDS011;42612;52.232;7.560;2023-12-20T02:37:23;5.10;;;2.70;;
56728;SDS011;42612;52.232;7.560;2023-12-20T02:39:49;9.30;;;2.42;;
56728;SDS011;42612;52.232;7.560;2023-12-20T02:42:15;6.65;;;2.50;;
56728;SDS011;42612;52.232;7.560;2023-12-20T02:44:41;9.75;;;2.80;;
56728;SDS011;42612;52.232;7.560;2023-12-20T02:47:06;11.95;;;2.55;;
56728;SDS011;42612;52.232;7.560;2023-12-20T02:49:32;8.32;;;2.58;;
56728;SDS011;42612;52.232;7.560;2023-12-20T02:51:58;11.00;;;2.95;;
56728;SDS011;42612;52.232;7.560;2023-12-20T02:54:23;5.47;;;2.33;;
56728;SDS011;42612;52.232;7.560;2023-12-20T02:56:49;7.15;;;2.47;;
56728;SDS011;42612;52.232;7.560;2023-12-20T02:59:15;8.02;;;2.50;;
56728;SDS011;42612;52.232;7.560;2023-12-20T03:01:45;9.65;;;2.50;;
56728;SDS011;42612;52.232;7.560;2023-12-20T03:04:11;10.75;;;2.00;;
56728;SDS011;42612;52.232;7.560;2023-12-20T03:06:37;13.57;;;2.55;;
56728;SDS011;42612;52.232;7.560;2023-12-20T03:09:03;3.65;;;1.70;;
56728;SDS011;42612;52.232;7.560;2023-12-20T03:11:29;7.38;;;2.55;;
56728;SDS011;42612;52.232;7.560;2023-12-20T03:13:56;7.50;;;1.83;;
56728;SDS011;42612;52.232;7.560;2023-12-20T03:16:22;9.93;;;2.33;;
56728;SDS011;42612;52.232;7.560;2023-12-20T03:18:48;9.32;;;2.25;;
56728;SDS011;42612;52.232;7.560;2023-12-20T03:21:14;4.38;;;1.90;;
56728;SDS011;42612;52.232;7.560;2023-12-20T03:23:40;8.75;;;1.95;;
56728;SDS011;42612;52.232;7.560;2023-12-20T03:26:07;5.22;;;1.83;;
56728;SDS011;42612;52.232;7.560;2023-12-20T03:28:33;4.97;;;2.25;;
56728;SDS011;42612;52.232;7.560;2023-12-20T03:30:59;7.75;;;1.58;;
56728;SDS011;42612;52.232;7.560;2023-12-20T03:35:53;7.18;;;1.70;;
56728;SDS011;42612;52.232;7.560;2023-12-20T03:38:18;7.68;;;1.85;;
56728;SDS011;42612;52.232;7.560;2023-12-20T03:40:45;4.57;;;1.45;;
56728;SDS011;42612;52.232;7.560;2023-12-20T03:43:10;6.82;;;1.73;;
56728;SDS011;42612;52.232;7.560;2023-12-20T03:45:36;7.95;;;2.45;;
56728;SDS011;42612;52.232;7.560;2023-12-20T03:48:02;8.32;;;1.70;;
56728;SDS011;42612;52.232;7.560;2023-12-20T03:50:28;8.70;;;2.08;;
56728;SDS011;42612;52.232;7.560;2023-12-20T03:52:54;5.95;;;1.52;;
56728;SDS011;42612;52.232;7.560;2023-12-20T03:55:20;5.95;;;1.27;;
56728;SDS011;42612;52.232;7.560;2023-12-20T03:57:45;6.47;;;2.17;;
56728;SDS011;42612;52.232;7.560;2023-12-20T04:00:11;7.70;;;1.77;;
56728;SDS011;42612;52.232;7.560;2023-12-20T04:02:38;5.78;;;2.17;;
56728;SDS011;42612;52.232;7.560;2023-12-20T04:05:05;8.45;;;1.60;;
56728;SDS011;42612;52.232;7.560;2023-12-20T04:07:31;8.48;;;2.25;;
56728;SDS011;42612;52.232;7.560;2023-12-20T04:09:57;4.30;;;1.95;;
56728;SDS011;42612;52.232;7.560;2023-12-20T04:12:23;16.30;;;2.10;;
56728;SDS011;42612;52.232;7.560;2023-12-20T04:14:49;5.75;;;1.75;;
56728;SDS011;42612;52.232;7.560;2023-12-20T04:17:15;5.40;;;1.80;;
56728;SDS011;42612;52.232;7.560;2023-12-20T04:19:42;7.18;;;2.03;;
56728;SDS011;42612;52.232;7.560;2023-12-20T04:22:08;6.47;;;2.05;;
56728;SDS011;42612;52.232;7.560;2023-12-20T04:24:34;10.50;;;1.80;;
56728;SDS011;42612;52.232;7.560;2023-12-20T04:27:00;6.00;;;1.75;;
56728;SDS011;42612;52.232;7.560;2023-12-20T04:29:26;8.52;;;2.08;;
56728;SDS011;42612;52.232;7.560;2023-12-20T04:31:52;9.30;;;2.15;;
56728;SDS011;42612;52.232;7.560;2023-12-20T04:34:18;9.57;;;1.80;;
56728;SDS011;42612;52.232;7.560;2023-12-20T04:36:44;6.93;;;2.05;;
56728;SDS011;42612;52.232;7.560;2023-12-20T04:39:11;9.43;;;2.28;;
56728;SDS011;42612;52.232;7.560;2023-12-20T04:41:38;17.67;;;2.20;;
56728;SDS011;42612;52.232;7.560;2023-12-20T04:44:04;7.60;;;1.70;;
56728;SDS011;42612;52.232;7.560;2023-12-20T04:46:31;13.18;;;2.47;;
56728;SDS011;42612;52.232;7.560;2023-12-20T04:48:56;10.55;;;2.53;;
56728;SDS011;42612;52.232;7.560;2023-12-20T04:51:22;10.52;;;2.47;;
56728;SDS011;42612;52.232;7.560;2023-12-20T04:53:48;5.95;;;2.45;;
56728;SDS011;42612;52.232;7.560;2023-12-20T04:56:14;8.05;;;1.90;;
56728;SDS011;42612;52.232;7.560;2023-12-20T04:58:39;7.97;;;2.70;;
56728;SDS011;42612;52.232;7.560;2023-12-20T05:01:05;11.25;;;2.22;;
56728;SDS011;42612;52.232;7.560;2023-12-20T05:03:32;9.23;;;2.40;;
56728;SDS011;42612;52.232;7.560;2023-12-20T05:05:58;15.50;;;3.10;;
56728;SDS011;42612;52.232;7.560;2023-12-20T05:08:23;8.13;;;2.33;;
56728;SDS011;42612;52.232;7.560;2023-12-20T05:10:50;8.68;;;2.42;;
56728;SDS011;42612;52.232;7.560;2023-12-20T05:13:18;5.63;;;2.17;;
56728;SDS011;42612;52.232;7.560;2023-12-20T05:15:43;8.43;;;2.00;;
56728;SDS011;42612;52.232;7.560;2023-12-20T05:18:09;9.13;;;2.13;;
56728;SDS011;42612;52.232;7.560;2023-12-20T05:20:35;6.90;;;2.20;;
56728;SDS011;42612;52.232;7.560;2023-12-20T05:23:00;13.73;;;2.15;;
56728;SDS011;42612;52.232;7.560;2023-12-20T05:25:26;10.65;;;2.60;;
56728;SDS011;42612;52.232;7.560;2023-12-20T05:27:52;10.85;;;2.10;;
56728;SDS011;42612;52.232;7.560;2023-12-20T05:30:18;7.88;;;1.95;;
56728;SDS011;42612;52.232;7.560;2023-12-20T05:32:43;7.35;;;2.38;;
56728;SDS011;42612;52.232;7.560;2023-12-20T05:35:09;8.25;;;2.60;;
56728;SDS011;42612;52.232;7.560;2023-12-20T05:37:35;11.15;;;3.00;;
56728;SDS011;42612;52.232;7.560;2023-12-20T05:40:01;12.40;;;4.40;;
56728;SDS011;42612;52.232;7.560;2023-12-20T05:42:26;8.20;;;2.97;;
56728;SDS011;42612;52.232;7.560;2023-12-20T05:44:52;12.90;;;4.90;;
56728;SDS011;42612;52.232;7.560;2023-12-20T05:47:18;11.07;;;2.88;;
56728;SDS011;42612;52.232;7.560;2023-12-20T05:49:43;8.05;;;2.90;;
56728;SDS011;42612;52.232;7.560;2023-12-20T05:52:10;9.18;;;2.88;;
56728;SDS011;42612;52.232;7.560;2023-12-20T05:54:36;9.02;;;3.17;;
56728;SDS011;42612;52.232;7.560;2023-12-20T05:57:01;7.65;;;2.78;;
56728;SDS011;42612;52.232;7.560;2023-12-20T05:59:27;10.30;;;2.95;;
56728;SDS011;42612;52.232;7.560;2023-12-20T06:01:53;10.05;;;3.13;;
56728;SDS011;42612;52.232;7.560;2023-12-20T06:04:19;11.30;;;2.90;;
56728;SDS011;42612;52.232;7.560;2023-12-20T06:06:44;6.15;;;2.30;;
56728;SDS011;42612;52.232;7.560;2023-12-20T06:09:10;7.35;;;2.60;;
56728;SDS011;42612;52.232;7.560;2023-12-20T06:11:36;8.23;;;2.63;;
56728;SDS011;42612;52.232;7.560;2023-12-20T06:14:02;11.20;;;2.75;;
56728;SDS011;42612;52.232;7.560;2023-12-20T06:16:28;7.97;;;2.50;;
56728;SDS011;42612;52.232;7.560;2023-12-20T06:18:53;9.73;;;2.38;;
56728;SDS011;42612;52.232;7.560;2023-12-20T06:21:19;13.98;;;3.13;;
56728;SDS011;42612;52.232;7.560;2023-12-20T06:23:45;11.20;;;2.60;;
56728;SDS011;42612;52.232;7.560;2023-12-20T06:26:10;11.13;;;2.50;;
56728;SDS011;42612;52.232;7.560;2023-12-20T06:28:36;11.20;;;2.63;;
56728;SDS011;42612;52.232;7.560;2023-12-20T06:31:02;7.03;;;2.05;;
56728;SDS011;42612;52.232;7.560;2023-12-20T06:33:28;4.43;;;2.08;;
56728;SDS011;42612;52.232;7.560;2023-12-20T06:35:56;6.03;;;2.17;;
56728;SDS011;42612;52.232;7.560;2023-12-20T06:38:22;10.07;;;2.97;;
56728;SDS011;42612;52.232;7.560;2023-12-20T06:40:48;8.20;;;2.45;;
56728;SDS011;42612;52.232;7.560;2023-12-20T06:43:14;7.47;;;2.22;;
56728;SDS011;42612;52.232;7.560;2023-12-20T06:45:40;12.55;;;3.38;;
56728;SDS011;42612;52.232;7.560;2023-12-20T06:48:06;13.73;;;2.80;;
56728;SDS011;42612;52.232;7.560;2023-12-20T06:50:32;10.35;;;2.78;;
56728;SDS011;42612;52.232;7.560;2023-12-20T06:52:57;7.07;;;2.03;;
56728;SDS011;42612;52.232;7.560;2023-12-20T06:55:23;7.85;;;2.03;;
56728;SDS011;42612;52.232;7.560;2023-12-20T06:57:49;7.82;;;2.13;;
56728;SDS011;42612;52.232;7.560;2023-12-20T07:00:15;14.50;;;2.60;;
56728;SDS011;42612;52.232;7.560;2023-12-20T07:02:41;10.63;;;2.13;;
56728;SDS011;42612;52.232;7.560;2023-12-20T07:05:07;8.25;;;2.55;;
56728;SDS011;42612;52.232;7.560;2023-12-20T07:07:32;11.40;;;2.08;;
56728;SDS011;42612;52.232;7.560;2023-12-20T07:09:58;9.38;;;2.42;;
56728;SDS011;42612;52.232;7.560;2023-12-20T07:12:24;10.38;;;2.50;;
56728;SDS011;42612;52.232;7.560;2023-12-20T07:14:49;10.48;;;2.58;;
56728;SDS011;42612;52.232;7.560;2023-12-20T07:17:15;9.48;;;2.20;;
56728;SDS011;42612;52.232;7.560;2023-12-20T07:19:41;8.00;;;2.10;;
56728;SDS011;42612;52.232;7.560;2023-12-20T07:22:07;10.80;;;3.05;;
56728;SDS011;42612;52.232;7.560;2023-12-20T07:24:33;11.20;;;2.67;;
56728;SDS011;42612;52.232;7.560;2023-12-20T07:26:59;6.10;;;2.83;;
56728;SDS011;42612;52.232;7.560;2023-12-20T07:29:26;8.20;;;2.00;;
56728;SDS011;42612;52.232;7.560;2023-12-20T07:31:54;9.90;;;2.42;;
56728;SDS011;42612;52.232;7.560;2023-12-20T07:34:20;5.78;;;1.63;;
56728;SDS011;42612;52.232;7.560;2023-12-20T07:36:46;9.25;;;2.78;;
56728;SDS011;42612;52.232;7.560;2023-12-20T07:39:12;10.15;;;2.50;;
56728;SDS011;42612;52.232;7.560;2023-12-20T07:41:39;12.00;;;2.70;;
56728;SDS011;42612;52.232;7.560;2023-12-20T07:44:06;12.10;;;3.17;;
56728;SDS011;42612;52.232;7.560;2023-12-20T07:46:32;7.20;;;1.92;;
56728;SDS011;42612;52.232;7.560;2023-12-20T07:48:58;11.55;;;3.50;;
56728;SDS011;42612;52.232;7.560;2023-12-20T07:51:24;9.88;;;2.47;;
56728;SDS011;42612;52.232;7.560;2023-12-20T07:53:49;6.25;;;1.95;;
56728;SDS011;42612;52.232;7.560;2023-12-20T07:56:17;8.50;;;2.30;;
56728;SDS011;42612;52.232;7.560;2023-12-20T07:58:44;10.98;;;2.30;;
56728;SDS011;42612;52.232;7.560;2023-12-20T08:01:10;9.48;;;2.70;;
56728;SDS011;42612;52.232;7.560;2023-12-20T08:03:37;13.77;;;2.40;;
56728;SDS011;42612;52.232;7.560;2023-12-20T08:06:03;8.02;;;2.42;;
56728;SDS011;42612;52.232;7.560;2023-12-20T08:08:30;9.43;;;2.33;;
56728;SDS011;42612;52.232;7.560;2023-12-20T08:10:56;6.05;;;2.30;;
56728;SDS011;42612;52.232;7.560;2023-12-20T08:13:24;9.95;;;2.83;;
56728;SDS011;42612;52.232;7.560;2023-12-20T08:15:51;7.27;;;2.07;;
56728;SDS011;42612;52.232;7.560;2023-12-20T08:18:17;15.32;;;2.45;;
56728;SDS011;42612;52.232;7.560;2023-12-20T08:20:43;10.30;;;2.47;;
56728;SDS011;42612;52.232;7.560;2023-12-20T08:23:09;10.85;;;2.08;;
56728;SDS011;42612;52.232;7.560;2023-12-20T08:25:34;12.60;;;2.60;;
56728;SDS011;42612;52.232;7.560;2023-12-20T08:28:01;8.85;;;2.50;;
56728;SDS011;42612;52.232;7.560;2023-12-20T08:32:54;7.70;;;1.90;;
56728;SDS011;42612;52.232;7.560;2023-12-20T08:35:20;9.18;;;2.33;;
56728;SDS011;42612;52.232;7.560;2023-12-20T08:37:46;11.60;;;3.03;;
56728;SDS011;42612;52.232;7.560;2023-12-20T08:40:12;8.32;;;2.95;;
56728;SDS011;42612;52.232;7.560;2023-12-20T08:42:38;11.88;;;2.72;;
56728;SDS011;42612;52.232;7.560;2023-12-20T08:45:04;9.52;;;2.30;;
56728;SDS011;42612;52.232;7.560;2023-12-20T08:47:30;10.95;;;2.80;;
56728;SDS011;42612;52.232;7.560;2023-12-20T08:49:56;10.27;;;2.67;;
56728;SDS011;42612;52.232;7.560;2023-12-20T08:52:24;9.77;;;2.97;;
56728;SDS011;42612;52.232;7.560;2023-12-20T08:57:21;8.00;;;2.45;;
56728;SDS011;42612;52.232;7.560;2023-12-20T08:59:50;5.55;;;2.03;;
56728;SDS011;42612;52.232;7.560;2023-12-20T09:02:16;9.25;;;2.22;;
56728;SDS011;42612;52.232;7.560;2023-12-20T09:04:42;9.15;;;2.40;;
56728;SDS011;42612;52.232;7.560;2023-12-20T09:07:24;15.27;;;3.33;;
56728;SDS011;42612;52.232;7.560;2023-12-20T09:09:51;8.65;;;2.50;;
56728;SDS011;42612;52.232;7.560;2023-12-20T09:12:21;10.50;;;2.72;;
56728;SDS011;42612;52.232;7.560;2023-12-20T09:14:47;10.63;;;2.38;;
56728;SDS011;42612;52.232;7.560;2023-12-20T09:17:14;8.20;;;2.90;;
56728;SDS011;42612;52.232;7.560;2023-12-20T09:19:41;15.23;;;2.90;;
56728;SDS011;42612;52.232;7.560;2023-12-20T09:22:09;5.72;;;2.20;;
56728;SDS011;42612;52.232;7.560;2023-12-20T09:24:35;11.10;;;2.40;;
56728;SDS011;42612;52.232;7.560;2023-12-20T09:27:01;10.82;;;2.47;;
56728;SDS011;42612;52.232;7.560;2023-12-20T09:29:27;12.20;;;2.70;;
56728;SDS011;42612;52.232;7.560;2023-12-20T09:31:54;11.57;;;3.08;;
56728;SDS011;42612;52.232;7.560;2023-12-20T09:34:20;11.30;;;2.88;;
56728;SDS011;42612;52.232;7.560;2023-12-20T09:36:47;10.05;;;2.70;;
56728;SDS011;42612;52.232;7.560;2023-12-20T09:39:13;9.60;;;2.70;;
56728;SDS011;42612;52.232;7.560;2023-12-20T09:41:43;13.98;;;2.60;;
56728;SDS011;42612;52.232;7.560;2023-12-20T09:44:14;16.23;;;2.92;;
56728;SDS011;42612;52.232;7.560;2023-12-20T09:46:44;5.40;;;2.40;;
56728;SDS011;42612;52.232;7.560;2023-12-20T09:49:14;7.43;;;2.08;;
56728;SDS011;42612;52.232;7.560;2023-12-20T09:51:43;10.75;;;2.28;;
56728;SDS011;42612;52.232;7.560;2023-12-20T09:54:11;9.57;;;2.28;;
56728;SDS011;42612;52.232;7.560;2023-12-20T09:56:41;7.10;;;2.53;;
56728;SDS011;42612;52.232;7.560;2023-12-20T09:59:07;9.98;;;2.88;;
56728;SDS011;42612;52.232;7.560;2023-12-20T10:01:33;9.52;;;2.35;;
56728;SDS011;42612;52.232;7.560;2023-12-20T10:04:00;3.53;;;1.63;;
56728;SDS011;42612;52.232;7.560;2023-12-20T10:06:33;7.88;;;1.90;;
56728;SDS011;42612;52.232;7.560;2023-12-20T10:09:04;9.43;;;1.95;;
56728;SDS011;42612;52.232;7.560;2023-12-20T10:11:30;8.43;;;2.55;;
56728;SDS011;42612;52.232;7.560;2023-12-20T10:13:59;6.50;;;1.77;;
56728;SDS011;42612;52.232;7.560;2023-12-20T10:16:28;8.65;;;2.50;;
56728;SDS011;42612;52.232;7.560;2023-12-20T10:18:55;6.32;;;1.60;;
56728;SDS011;42612;52.232;7.560;2023-12-20T10:21:25;7.63;;;2.55;;
56728;SDS011;42612;52.232;7.560;2023-12-20T10:24:16;5.32;;;1.83;;
56728;SDS011;42612;52.232;7.560;2023-12-20T10:26:42;7.82;;;1.75;;
56728;SDS011;42612;52.232;7.560;2023-12-20T10:29:08;7.82;;;1.92;;
56728;SDS011;42612;52.232;7.560;2023-12-20T10:31:35;8.98;;;2.20;;
56728;SDS011;42612;52.232;7.560;2023-12-20T10:34:03;6.10;;;2.10;;
56728;SDS011;42612;52.232;7.560;2023-12-20T10:36:30;9.25;;;1.88;;
56728;SDS011;42612;52.232;7.560;2023-12-20T10:38:58;6.72;;;2.17;;
56728;SDS011;42612;52.232;7.560;2023-12-20T10:41:27;10.83;;;2.50;;
56728;SDS011;42612;52.232;7.560;2023-12-20T10:43:56;4.55;;;2.05;;
56728;SDS011;42612;52.232;7.560;2023-12-20T10:46:28;10.38;;;2.22;;
56728;SDS011;42612;52.232;7.560;2023-12-20T10:48:55;11.52;;;2.08;;
56728;SDS011;42612;52.232;7.560;2023-12-20T10:51:22;8.55;;;2.20;;
56728;SDS011;42612;52.232;7.560;2023-12-20T10:53:55;9.95;;;2.55;;
56728;SDS011;42612;52.232;7.560;2023-12-20T10:56:21;6.18;;;2.13;;
56728;SDS011;42612;52.232;7.560;2023-12-20T10:58:49;4.95;;;1.88;;
56728;SDS011;42612;52.232;7.560;2023-12-20T11:01:19;5.78;;;2.13;;
56728;SDS011;42612;52.232;7.560;2023-12-20T11:03:49;10.25;;;2.72;;
56728;SDS011;42612;52.232;7.560;2023-12-20T11:12:18;5.47;;;2.55;;
56728;SDS011;42612;52.232;7.560;2023-12-20T11:14:54;5.88;;;2.00;;
56728;SDS011;42612;52.232;7.560;2023-12-20T11:17:22;8.65;;;2.35;;
56728;SDS011;42612;52.232;7.560;2023-12-20T11:22:18;4.25;;;1.85;;
56728;SDS011;42612;52.232;7.560;2023-12-20T11:24:46;7.03;;;1.95;;
56728;SDS011;42612;52.232;7.560;2023-12-20T11:27:13;6.82;;;1.80;;
56728;SDS011;42612;52.232;7.560;2023-12-20T11:29:39;5.35;;;2.20;;
56728;SDS011;42612;52.232;7.560;2023-12-20T11:32:28;8.25;;;2.15;;
56728;SDS011;42612;52.232;7.560;2023-12-20T11:37:25;13.30;;;2.67;;
56728;SDS011;42612;52.232;7.560;2023-12-20T11:40:00;5.50;;;2.05;;
56728;SDS011;42612;52.232;7.560;2023-12-20T11:42:50;8.93;;;2.45;;
56728;SDS011;42612;52.232;7.560;2023-12-20T11:45:19;6.80;;;2.00;;
56728;SDS011;42612;52.232;7.560;2023-12-20T11:47:49;10.60;;;2.35;;
56728;SDS011;42612;52.232;7.560;2023-12-20T11:50:20;7.15;;;2.30;;
56728;SDS011;42612;52.232;7.560;2023-12-20T11:52:47;6.93;;;1.95;;
56728;SDS011;42612;52.232;7.560;2023-12-20T11:55:14;4.70;;;1.60;;
56728;SDS011;42612;52.232;7.560;2023-12-20T11:57:41;9.73;;;2.92;;
56728;SDS011;42612;52.232;7.560;2023-12-20T12:02:34;5.93;;;1.55;;
56728;SDS011;42612;52.232;7.560;2023-12-20T12:05:00;1.73;;;0.70;;
56728;SDS011;42612;52.232;7.560;2023-12-20T12:07:26;2.97;;;0.85;;
56728;SDS011;42612;52.232;7.560;2023-12-20T12:09:51;6.35;;;1.17;;
56728;SDS011;42612;52.232;7.560;2023-12-20T12:12:17;4.10;;;0.90;;
56728;SDS011;42612;52.232;7.560;2023-12-20T12:14:45;5.50;;;0.90;;
56728;SDS011;42612;52.232;7.560;2023-12-20T12:17:13;5.05;;;1.15;;
56728;SDS011;42612;52.232;7.560;2023-12-20T12:19:40;4.22;;;1.20;;
56728;SDS011;42612;52.232;7.560;2023-12-20T12:22:07;5.87;;;1.20;;
56728;SDS011;42612;52.232;7.560;2023-12-20T12:27:09;2.55;;;0.90;;
56728;SDS011;42612;52.232;7.560;2023-12-20T12:29:35;3.20;;;0.90;;
56728;SDS011;42612;52.232;7.560;2023-12-20T12:32:04;5.07;;;0.90;;
56728;SDS011;42612;52.232;7.560;2023-12-20T12:34:36;5.50;;;1.10;;
56728;SDS011;42612;52.232;7.560;2023-12-20T12:37:05;5.25;;;1.00;;
56728;SDS011;42612;52.232;7.560;2023-12-20T12:39:31;4.53;;;1.27;;
56728;SDS011;42612;52.232;7.560;2023-12-20T12:41:57;5.60;;;1.23;;
56728;SDS011;42612;52.232;7.560;2023-12-20T12:44:23;2.45;;;1.08;;
56728;SDS011;42612;52.232;7.560;2023-12-20T12:46:50;4.03;;;1.50;;
56728;SDS011;42612;52.232;7.560;2023-12-20T12:49:18;4.22;;;0.93;;
56728;SDS011;42612;52.232;7.560;2023-12-20T12:51:47;3.08;;;1.13;;
56728;SDS011;42612;52.232;7.560;2023-12-20T12:54:13;5.47;;;1.40;;
56728;SDS011;42612;52.232;7.560;2023-12-20T12:56:40;4.38;;;1.20;;
56728;SDS011;42612;52.232;7.560;2023-12-20T12:59:06;5.22;;;0.98;;
56728;SDS011;42612;52.232;7.560;2023-12-20T13:01:33;1.50;;;0.93;;
56728;SDS011;42612;52.232;7.560;2023-12-20T13:03:59;1.35;;;0.80;;
56728;SDS011;42612;52.232;7.560;2023-12-20T13:06:26;5.03;;;1.58;;
56728;SDS011;42612;52.232;7.560;2023-12-20T13:08:52;1.88;;;0.80;;
56728;SDS011;42612;52.232;7.560;2023-12-20T13:11:18;2.95;;;1.35;;
56728;SDS011;42612;52.232;7.560;2023-12-20T13:13:43;3.30;;;0.80;;
56728;SDS011;42612;52.232;7.560;2023-12-20T13:16:09;4.00;;;1.13;;
56728;SDS011;42612;52.232;7.560;2023-12-20T13:18:35;3.22;;;1.13;;
56728;SDS011;42612;52.232;7.560;2023-12-20T13:21:00;2.75;;;1.17;;
56728;SDS011;42612;52.232;7.560;2023-12-20T13:23:26;6.10;;;1.00;;
56728;SDS011;42612;52.232;7.560;2023-12-20T13:25:52;1.27;;;0.75;;
56728;SDS011;42612;52.232;7.560;2023-12-20T13:28:18;4.20;;;1.10;;
56728;SDS011;42612;52.232;7.560;2023-12-20T13:30:44;4.10;;;0.95;;
56728;SDS011;42612;52.232;7.560;2023-12-20T13:33:10;5.22;;;1.08;;
56728;SDS011;42612;52.232;7.560;2023-12-20T13:35:36;3.22;;;0.93;;
56728;SDS011;42612;52.232;7.560;2023-12-20T13:38:02;4.60;;;0.90;;
56728;SDS011;42612;52.232;7.560;2023-12-20T13:40:28;7.28;;;1.40;;
56728;SDS011;42612;52.232;7.560;2023-12-20T13:42:53;2.22;;;1.05;;
56728;SDS011;42612;52.232;7.560;2023-12-20T13:45:20;2.92;;;0.85;;
56728;SDS011;42612;52.232;7.560;2023-12-20T13:47:45;1.80;;;0.85;;
56728;SDS011;42612;52.232;7.560;2023-12-20T13:50:11;4.00;;;1.10;;
56728;SDS011;42612;52.232;7.560;2023-12-20T13:52:37;2.65;;;0.65;;
56728;SDS011;42612;52.232;7.560;2023-12-20T13:55:03;3.90;;;1.10;;
56728;SDS011;42612;52.232;7.560;2023-12-20T13:59:57;2.25;;;0.70;;
56728;SDS011;42612;52.232;7.560;2023-12-20T14:02:23;2.70;;;1.05;;
56728;SDS011;42612;52.232;7.560;2023-12-20T14:04:48;3.58;;;1.10;;
56728;SDS011;42612;52.232;7.560;2023-12-20T14:07:14;2.85;;;0.88;;
56728;SDS011;42612;52.232;7.560;2023-12-20T14:09:40;4.20;;;1.10;;
56728;SDS011;42612;52.232;7.560;2023-12-20T14:12:10;3.03;;;0.80;;
56728;SDS011;42612;52.232;7.560;2023-12-20T14:14:37;3.92;;;0.93;;
56728;SDS011;42612;52.232;7.560;2023-12-20T14:17:03;3.40;;;1.40;;
56728;SDS011;42612;52.232;7.560;2023-12-20T14:19:31;3.70;;;1.10;;
56728;SDS011;42612;52.232;7.560;2023-12-20T14:21:57;4.05;;;0.85;;
56728;SDS011;42612;52.232;7.560;2023-12-20T14:24:26;4.55;;;1.58;;
56728;SDS011;42612;52.232;7.560;2023-12-20T14:26:52;2.33;;;1.13;;
56728;SDS011;42612;52.232;7.560;2023-12-20T14:29:18;2.70;;;0.80;;
56728;SDS011;42612;52.232;7.560;2023-12-20T14:31:44;0.98;;;0.80;;
56728;SDS011;42612;52.232;7.560;2023-12-20T14:34:10;3.03;;;0.98;;
56728;SDS011;42612;52.232;7.560;2023-12-20T14:36:36;2.80;;;1.10;;
56728;SDS011;42612;52.232;7.560;2023-12-20T14:39:02;3.08;;;1.15;;
56728;SDS011;42612;52.232;7.560;2023-12-20T14:41:29;5.25;;;1.13;;
56728;SDS011;42612;52.232;7.560;2023-12-20T14:43:55;2.45;;;1.00;;
56728;SDS011;42612;52.232;7.560;2023-12-20T14:46:21;4.22;;;1.10;;
56728;SDS011;42612;52.232;7.560;2023-12-20T14:48:47;8.07;;;1.80;;
56728;SDS011;42612;52.232;7.560;2023-12-20T14:51:14;5.05;;;1.35;;
56728;SDS011;42612;52.232;7.560;2023-12-20T14:53:40;2.88;;;1.30;;
56728;SDS011;42612;52.232;7.560;2023-12-20T14:56:07;7.57;;;1.87;;
56728;SDS011;42612;52.232;7.560;2023-12-20T14:58:33;5.75;;;1.30;;
56728;SDS011;42612;52.232;7.560;2023-12-20T15:00:59;3.78;;;1.63;;
56728;SDS011;42612;52.232;7.560;2023-12-20T15:03:26;3.33;;;1.58;;
56728;SDS011;42612;52.232;7.560;2023-12-20T15:05:51;4.38;;;1.75;;
56728;SDS011;42612;52.232;7.560;2023-12-20T15:08:17;3.78;;;1.60;;